AirNav   Pilot Hours Calculator
 
 461 users online  

OH45 Drake Airport
Bowling Green, Ohio, USA

GOING TO BOWLING GREEN?


FAA INFORMATION EFFECTIVE 26 JANUARY 2023

Location

FAA Identifier: OH45
Lat/Long: 41-27-15.1880N 083-35-10.7580W
41-27.253133N 083-35.179300W
41.4542189,-83.5863217
(estimated)
Elevation: 655 ft. / 200 m (estimated)
Variation: 05W (1985)
From city: 5 miles NE of BOWLING GREEN, OH
Time zone: UTC -5 (UTC -4 during Daylight Saving Time)
Zip code: 43402

Airport Operations

Airport use: CLOSED INDEFINITELY, PERSONAL USE.
Activation date: 09/1990
Control tower: no
ARTCC: CLEVELAND CENTER
FSS: CLEVELAND FLIGHT SERVICE STATION
Attendance: UNATNDD
Segmented circle: no

Airport Communications

WX AWOS-3 at 1G0 (4 nm SW): 120.725 (419-354-1415)
WX ASOS at TDZ (8 nm NE): 121.575 (419-838-5034)
WX ASOS at TOL (13 nm NW): PHONE 419-865-6924
WX AWOS-3 at DUH (17 nm N): 119.175 (734-856-1563)
WX AWOS-3 at FZI (18 nm SE): 124.625 (419-436-0053)

Nearby radio navigation aids

VOR radial/distance  VOR name  Freq  Var
FBCr016/30.9FLAG CITY VORTAC108.2002W
CRLr192/36.1CARLETON VOR/DME115.7003W

 
NDB name  Hdg/Dist  Freq  Var  ID
TIFFIN327/27.326905WTII - .. ..
PORT CLINTON270/32.542307WPCW .--. -.-. .--
ADRIAN145/33.327806WADG .- -.. --.
TECUMSEH165/37.323906WTCU - -.-. ..-

Airport Services

Runway Information

Runway 9/27

Dimensions: 1900 x 60 ft. / 579 x 18 m
Surface: turf
RUNWAY 9  RUNWAY 27
Traffic pattern: leftleft
Obstructions: 50 ft. plinenone

Airport Ownership and Management from official FAA records

Ownership: Privately-owned
Owner: LAWRENCE A. DRAKE
20301 MC CUTCHEONVILLE ROAD
BOWLING GREEN, OH 43402
Phone 419-833-7962

Airport Operational Statistics

Aircraft based on the field: 1
Single engine airplanes: 1
    

Additional Remarks

RY 09 USED FOR DEPARTURE; RY 27 USED FOR LANDING.
FOR CD CTC TOLEDO APCH AT 419-865-1495
(ARPT STATUS) ARPT CLSD INDEFLY.

Instrument Procedures

There are no published instrument procedures at OH45.

Some nearby airports with instrument procedures:

1G0 - Wood County Airport (4 nm SW)
KTDZ - Toledo Executive Airport (8 nm NE)
KTOL - Eugene F Kranz Toledo Express Airport (13 nm NW)
KDUH - Toledo Suburban Airport (17 nm N)
KFZI - Fostoria Metro Airport (18 nm SE)
 
Loc | Ops | Rwys | IFR | FBO | Links
Com | Nav | Svcs | Stats | Notes
Area around OH45 (Drake Airport)
 
Road maps at: MapQuest Bing Google
 
Aerial photo
No photo
 
Sectional chart

 
Airport distance calculator
Flying to Drake Airport? Find the distance to fly.

From to OH45

Sunrise and sunset
Times for 04-Feb-2023
 Local
(UTC-5)
 Zulu
(UTC)
Morning civil twilight07:1512:15
Sunrise07:4412:44
Sunset17:5322:53
Evening civil twilight18:2223:22

Current date and time
Zulu (UTC)  04-Feb-2023 08:28:17
Local (UTC-5)  04-Feb-2023 03:28:17
 
METAR
KTDZ 
8nm NE 
040753Z AUTO 16006KT 10SM OVC090 M09/M16 A3052 RMK AO2 SLP347 T10941156
KTOL 
12nm NW 
040752Z 15003KT 10SM OVC090 M11/M15 A3050 RMK AO2 SLP343 T11061150
KDUH 
17nm N 
040815Z AUTO 16003KT 10SM SCT075 BKN090 SCT120 M10/M16 A3050 RMK AO2 T11001164
TAF
KTOL 
12nm NW 
040536Z 0406/0506 VRB03KT P6SM BKN100 FM041200 19010KT P6SM SCT200 FM041600 22012G20KT P6SM SCT200
NOTAMs
Click for the latest NOTAMs
NOTAMs are issued by the DoD/FAA and will open in a separate window not controlled by AirNav.

 

 
 

Would you like to see your business listed on this page?

 If your business provides an interesting product or service to pilots, flight crews, aircraft, or users of the Drake Airport, you should consider listing it here.  To start the listing process, click on the button below
 
Add a business
 

Other Pages about Drake Airport

Update a link
 
Copyright © AirNav, LLC. All rights reserved. Privacy Policy  Contact